createdAt,value
2023-04-20T00:00:45.664Z,3.10
2023-04-20T00:03:12.926Z,5.40
2023-04-20T00:05:39.529Z,3.20
2023-04-20T00:08:06.183Z,3.90
2023-04-20T00:10:32.662Z,2.80
2023-04-20T00:12:59.076Z,1.90
2023-04-20T00:15:25.622Z,6.10
2023-04-20T00:17:52.394Z,3.10
2023-04-20T00:20:19.194Z,8.50
2023-04-20T00:22:45.708Z,3.40
2023-04-20T00:25:12.196Z,3.00
2023-04-20T00:27:39.215Z,3.10
2023-04-20T00:30:06.380Z,2.80
2023-04-20T00:32:32.862Z,2.30
2023-04-20T00:34:59.897Z,2.70
2023-04-20T00:37:26.362Z,4.20
2023-04-20T00:39:52.864Z,3.80
2023-04-20T00:42:19.352Z,3.40
2023-04-20T00:44:45.822Z,3.00
2023-04-20T00:47:12.249Z,2.30
2023-04-20T00:49:38.759Z,1.90
2023-04-20T00:52:05.780Z,4.40
2023-04-20T00:54:32.678Z,3.40
2023-04-20T00:57:00.028Z,3.10
2023-04-20T00:59:26.610Z,3.40
2023-04-20T01:01:53.092Z,3.20
2023-04-20T01:04:20.626Z,3.50
2023-04-20T01:06:47.175Z,4.10
2023-04-20T01:09:13.704Z,3.60
2023-04-20T01:11:40.168Z,6.50
2023-04-20T01:14:06.986Z,4.10
2023-04-20T01:16:37.348Z,1.80
2023-04-20T01:19:03.965Z,3.70
2023-04-20T01:21:31.075Z,2.70
2023-04-20T01:23:57.755Z,4.10
2023-04-20T01:26:24.997Z,2.20
2023-04-20T01:28:51.801Z,3.10
2023-04-20T01:31:18.651Z,2.30
2023-04-20T01:33:45.309Z,2.90
2023-04-20T01:36:12.588Z,3.40
2023-04-20T01:38:39.228Z,2.10
2023-04-20T01:41:07.900Z,2.90
2023-04-20T01:43:36.652Z,2.00
2023-04-20T01:46:03.755Z,2.50
2023-04-20T01:48:30.233Z,4.20
2023-04-20T01:50:56.741Z,6.30
2023-04-20T01:53:23.405Z,3.90
2023-04-20T01:55:50.053Z,4.80
2023-04-20T01:58:16.800Z,4.30
2023-04-20T02:00:43.426Z,4.60
2023-04-20T02:03:10.164Z,6.00
2023-04-20T02:05:36.729Z,4.00
2023-04-20T02:08:04.155Z,3.60
2023-04-20T02:10:30.700Z,5.40
2023-04-20T02:12:57.497Z,2.40
2023-04-20T02:15:23.996Z,4.00
2023-04-20T02:17:53.181Z,4.90
2023-04-20T02:20:20.386Z,2.70
2023-04-20T02:22:46.932Z,3.60
2023-04-20T02:25:15.245Z,2.00
2023-04-20T02:27:42.101Z,3.90
2023-04-20T02:30:09.739Z,2.40
2023-04-20T02:32:36.583Z,3.60
2023-04-20T02:35:06.685Z,3.60
2023-04-20T02:37:33.231Z,2.40
2023-04-20T02:39:59.720Z,3.00
2023-04-20T02:42:26.268Z,3.70
2023-04-20T02:44:52.913Z,4.30
2023-04-20T02:47:19.709Z,3.90
2023-04-20T02:49:46.267Z,4.60
2023-04-20T02:52:12.789Z,5.80
2023-04-20T02:54:39.231Z,4.50
2023-04-20T02:57:05.746Z,3.80
2023-04-20T02:59:32.186Z,2.90
2023-04-20T03:01:58.721Z,2.60
2023-04-20T03:04:26.374Z,3.20
2023-04-20T03:06:53.646Z,3.50
2023-04-20T03:09:20.367Z,3.30
2023-04-20T03:11:46.851Z,4.50
2023-04-20T03:14:13.313Z,2.90
2023-04-20T03:16:39.788Z,3.10
2023-04-20T03:19:06.314Z,4.50
2023-04-20T03:21:33.132Z,4.60
2023-04-20T03:24:00.442Z,3.10
2023-04-20T03:26:26.996Z,3.10
2023-04-20T03:28:53.517Z,3.70
2023-04-20T03:31:19.979Z,3.40
2023-04-20T03:33:46.432Z,4.50
2023-04-20T03:36:13.414Z,5.90
2023-04-20T03:38:40.011Z,5.80
2023-04-20T03:41:08.191Z,3.80
2023-04-20T03:43:35.282Z,4.70
2023-04-20T03:46:01.915Z,6.20
2023-04-20T03:48:28.490Z,2.70
2023-04-20T03:50:54.924Z,3.90
2023-04-20T03:53:21.843Z,3.70
2023-04-20T03:55:48.291Z,3.80
2023-04-20T03:58:15.249Z,3.10
2023-04-20T04:00:41.665Z,2.80
2023-04-20T04:03:08.385Z,2.60
2023-04-20T04:05:35.041Z,3.00
2023-04-20T04:08:01.602Z,4.00
2023-04-20T04:10:28.114Z,5.30
2023-04-20T04:12:54.622Z,4.90
2023-04-20T04:15:21.152Z,5.70
2023-04-20T04:17:48.577Z,5.60
2023-04-20T04:20:15.501Z,5.10
2023-04-20T04:22:43.316Z,5.20
2023-04-20T04:25:11.408Z,4.20
2023-04-20T04:27:39.875Z,4.00
2023-04-20T04:30:07.387Z,4.80
2023-04-20T04:32:36.554Z,2.40
2023-04-20T04:35:03.631Z,1.50
2023-04-20T04:37:30.073Z,5.30
2023-04-20T04:39:58.202Z,5.30
2023-04-20T04:42:24.977Z,5.50
2023-04-20T04:44:53.497Z,3.50
2023-04-20T04:47:22.087Z,2.20
2023-04-20T04:49:49.507Z,2.60
2023-04-20T04:52:16.226Z,3.70
2023-04-20T04:54:42.658Z,4.60
2023-04-20T04:57:09.112Z,4.60
2023-04-20T04:59:36.156Z,4.60
2023-04-20T05:02:02.727Z,6.20
2023-04-20T05:04:29.309Z,4.00
2023-04-20T05:06:56.091Z,3.80
2023-04-20T05:09:22.644Z,1.90
2023-04-20T05:11:49.061Z,3.50
2023-04-20T05:14:15.685Z,4.30
2023-04-20T05:16:42.165Z,4.60
2023-04-20T05:19:08.670Z,3.90
2023-04-20T05:21:36.103Z,2.60
2023-04-20T05:24:02.549Z,4.00
2023-04-20T05:26:29.021Z,3.80
2023-04-20T05:28:55.534Z,4.20
2023-04-20T05:31:21.998Z,2.90
2023-04-20T05:33:48.515Z,3.80
2023-04-20T05:36:15.063Z,3.90
2023-04-20T05:38:41.565Z,5.60
2023-04-20T05:41:08.057Z,4.10
2023-04-20T05:43:34.585Z,4.20
2023-04-20T05:46:01.170Z,5.60
2023-04-20T05:48:29.706Z,3.90
2023-04-20T05:50:56.939Z,4.30
2023-04-20T05:53:23.489Z,5.80
2023-04-20T05:55:50.170Z,4.60
2023-04-20T05:58:17.160Z,3.90
2023-04-20T06:00:44.450Z,6.50
2023-04-20T06:03:11.264Z,5.60
2023-04-20T06:05:38.080Z,4.80
2023-04-20T06:08:04.832Z,6.00
2023-04-20T06:10:34.185Z,5.10
2023-04-20T06:13:00.958Z,5.20
2023-04-20T06:15:27.556Z,4.40
2023-04-20T06:17:54.100Z,6.60
2023-04-20T06:20:21.079Z,5.80
2023-04-20T06:22:47.994Z,6.00
2023-04-20T06:25:15.792Z,7.20
2023-04-20T06:27:42.636Z,5.00
2023-04-20T06:30:09.940Z,5.40
2023-04-20T06:32:36.738Z,5.60
2023-04-20T06:35:04.311Z,6.50
2023-04-20T06:37:30.831Z,5.80
2023-04-20T06:39:57.438Z,4.70
2023-04-20T06:42:23.884Z,4.10
2023-04-20T06:44:51.032Z,6.80
2023-04-20T06:47:17.607Z,4.60
2023-04-20T06:49:44.107Z,7.60
2023-04-20T06:52:10.547Z,7.20
2023-04-20T06:54:37.011Z,9.70
2023-04-20T06:57:03.479Z,5.00
2023-04-20T06:59:29.963Z,5.90
2023-04-20T07:01:56.501Z,5.20
2023-04-20T07:04:23.061Z,4.00
2023-04-20T07:06:53.821Z,4.70
2023-04-20T07:09:20.890Z,6.50
2023-04-20T07:11:47.345Z,6.00
2023-04-20T07:14:13.881Z,5.90
2023-04-20T07:16:40.354Z,5.90
2023-04-20T07:19:06.832Z,4.60
2023-04-20T07:21:33.377Z,4.30
2023-04-20T07:23:59.863Z,7.60
2023-04-20T07:26:26.425Z,4.40
2023-04-20T07:28:52.942Z,5.90
2023-04-20T07:31:19.542Z,4.60
2023-04-20T07:33:46.542Z,5.70
2023-04-20T07:36:13.095Z,5.60
2023-04-20T07:38:39.598Z,5.90
2023-04-20T07:41:10.188Z,5.70
2023-04-20T07:43:37.311Z,5.90
2023-04-20T07:46:04.215Z,5.50
2023-04-20T07:48:31.947Z,7.40
2023-04-20T07:50:58.383Z,6.50
2023-04-20T07:53:24.871Z,4.90
2023-04-20T07:55:51.262Z,4.80
2023-04-20T07:58:18.552Z,6.90
2023-04-20T08:00:48.603Z,5.10
2023-04-20T08:03:15.652Z,5.60
2023-04-20T08:05:42.381Z,6.40
2023-04-20T08:08:09.016Z,5.40
2023-04-20T08:10:36.024Z,6.30
2023-04-20T08:13:02.559Z,5.00
2023-04-20T08:15:29.326Z,4.90
2023-04-20T08:17:55.913Z,5.40
2023-04-20T08:20:22.479Z,5.10
2023-04-20T08:22:49.627Z,7.50
2023-04-20T08:25:16.353Z,6.50
2023-04-20T08:27:43.250Z,6.10
2023-04-20T08:30:10.739Z,5.10
2023-04-20T08:32:37.312Z,6.50
2023-04-20T08:35:05.182Z,4.10
2023-04-20T08:37:32.951Z,5.60
2023-04-20T08:39:59.664Z,5.20
2023-04-20T08:42:26.315Z,4.60
2023-04-20T08:44:53.065Z,4.80
2023-04-20T08:47:21.605Z,5.20
2023-04-20T08:49:50.904Z,6.50
2023-04-20T08:52:17.343Z,6.90
2023-04-20T08:57:13.072Z,7.20
2023-04-20T08:59:39.588Z,5.40
2023-04-20T09:02:15.892Z,6.70
2023-04-20T09:04:42.810Z,6.30
2023-04-20T09:07:20.985Z,8.20
2023-04-20T09:09:55.284Z,5.80
2023-04-20T09:12:22.858Z,6.50
2023-04-20T09:14:49.612Z,6.10
2023-04-20T09:17:17.884Z,6.80
2023-04-20T09:19:45.931Z,6.80
2023-04-20T09:22:12.861Z,5.70
2023-04-20T09:24:40.820Z,4.90
2023-04-20T09:27:18.868Z,5.60
2023-04-20T09:30:05.304Z,5.30
2023-04-20T09:32:32.979Z,3.50
2023-04-20T09:34:59.537Z,5.00
2023-04-20T09:37:26.225Z,8.10
2023-04-20T09:39:59.657Z,6.00
2023-04-20T09:42:28.826Z,6.70
2023-04-20T09:44:57.165Z,5.50
2023-04-20T09:47:25.921Z,4.50
2023-04-20T09:49:53.205Z,6.30
2023-04-20T09:52:19.633Z,5.80
2023-04-20T09:54:46.363Z,8.40
2023-04-20T09:57:14.523Z,4.40
2023-04-20T09:59:43.891Z,4.90
2023-04-20T10:02:12.536Z,5.30
2023-04-20T10:04:54.765Z,4.80
2023-04-20T10:07:29.166Z,4.30
2023-04-20T10:10:09.594Z,5.50
2023-04-20T10:13:11.952Z,6.10
2023-04-20T10:15:40.654Z,5.90
2023-04-20T10:18:23.812Z,3.60
2023-04-20T10:20:51.701Z,5.90
2023-04-20T10:23:20.015Z,3.20
2023-04-20T10:25:58.316Z,4.30
2023-04-20T10:28:25.161Z,6.00
2023-04-20T10:30:53.453Z,6.00
2023-04-20T10:33:20.254Z,7.50
2023-04-20T10:35:46.679Z,4.50
2023-04-20T10:38:13.440Z,5.30
2023-04-20T10:40:40.311Z,4.80
2023-04-20T10:43:21.707Z,4.20
2023-04-20T10:45:49.503Z,5.80
2023-04-20T10:48:17.919Z,6.40
2023-04-20T10:50:45.080Z,5.30
2023-04-20T10:53:19.641Z,3.00
2023-04-20T10:55:46.344Z,6.30
2023-04-20T10:58:23.542Z,3.30
2023-04-20T11:01:05.290Z,6.40
2023-04-20T11:03:34.512Z,4.80
2023-04-20T11:06:02.500Z,4.90
2023-04-20T11:08:43.265Z,5.90
2023-04-20T11:11:19.874Z,5.20
2023-04-20T11:13:47.121Z,4.80
2023-04-20T11:16:16.411Z,2.20
2023-04-20T11:18:51.544Z,2.90
2023-04-20T11:21:18.258Z,3.90
2023-04-20T11:23:44.938Z,5.30
2023-04-20T11:26:11.948Z,6.30
2023-04-20T11:28:38.414Z,4.10
2023-04-20T11:31:05.143Z,4.70
2023-04-20T11:33:33.232Z,4.70
2023-04-20T11:36:00.956Z,4.50
2023-04-20T11:38:36.170Z,3.10
2023-04-20T11:41:07.804Z,4.30
2023-04-20T11:43:36.028Z,3.20
2023-04-20T11:46:03.080Z,3.10
2023-04-20T11:48:32.639Z,5.20
2023-04-20T11:50:59.094Z,4.20
2023-04-20T11:53:25.844Z,3.70
2023-04-20T11:55:52.321Z,4.30
2023-04-20T11:58:18.809Z,3.80
2023-04-20T12:00:45.300Z,3.90
2023-04-20T12:03:11.856Z,3.60
2023-04-20T12:05:38.473Z,5.80
2023-04-20T12:08:06.095Z,4.60
2023-04-20T12:10:32.565Z,4.30
2023-04-20T12:13:00.062Z,3.40
2023-04-20T12:15:27.066Z,4.20
2023-04-20T12:17:53.942Z,6.20
2023-04-20T12:20:20.540Z,3.80
2023-04-20T12:22:46.961Z,7.40
2023-04-20T12:25:14.076Z,6.40
2023-04-20T12:27:40.796Z,5.80
2023-04-20T12:30:09.284Z,3.90
2023-04-20T12:32:35.774Z,3.30
2023-04-20T12:35:02.702Z,5.20
2023-04-20T12:37:29.204Z,6.40
2023-04-20T12:39:55.630Z,6.10
2023-04-20T12:42:22.071Z,4.30
2023-04-20T12:44:48.595Z,4.10
2023-04-20T12:47:15.175Z,4.90
2023-04-20T12:49:41.851Z,6.10
2023-04-20T12:52:08.919Z,4.80
2023-04-20T12:54:35.470Z,5.00
2023-04-20T12:57:02.574Z,4.10
2023-04-20T12:59:29.165Z,7.30
2023-04-20T13:01:55.820Z,6.50
2023-04-20T13:04:23.100Z,11.20
2023-04-20T13:06:50.334Z,5.10
2023-04-20T13:09:16.797Z,4.60
2023-04-20T13:11:43.268Z,5.60
2023-04-20T13:14:09.750Z,4.20
2023-04-20T13:16:36.292Z,5.10
2023-04-20T13:19:03.119Z,4.20
2023-04-20T13:21:29.724Z,6.10
2023-04-20T13:23:56.991Z,5.30
2023-04-20T13:26:23.814Z,5.30
2023-04-20T13:28:50.373Z,5.80
2023-04-20T13:31:16.843Z,2.70
2023-04-20T13:33:43.307Z,4.70
2023-04-20T13:36:09.837Z,3.30
2023-04-20T13:38:36.455Z,2.00
2023-04-20T13:41:03.221Z,3.30
2023-04-20T13:43:29.752Z,3.30
2023-04-20T13:45:56.222Z,3.70
2023-04-20T13:48:22.884Z,4.20
2023-04-20T13:50:49.439Z,4.10
2023-04-20T13:53:15.946Z,3.30
2023-04-20T13:55:42.397Z,3.00
2023-04-20T13:58:09.268Z,5.70
2023-04-20T14:00:35.713Z,4.00
2023-04-20T14:03:02.468Z,4.40
2023-04-20T14:05:29.228Z,4.50
2023-04-20T14:07:55.691Z,4.00
2023-04-20T14:10:22.241Z,1.90
2023-04-20T14:12:48.689Z,3.40
2023-04-20T14:15:15.160Z,2.30
2023-04-20T14:17:41.656Z,4.10
2023-04-20T14:20:09.349Z,2.30
2023-04-20T14:22:37.421Z,3.90
2023-04-20T14:25:07.350Z,3.50
2023-04-20T14:27:34.114Z,3.10
2023-04-20T14:30:01.465Z,5.90
2023-04-20T14:32:27.989Z,2.60
2023-04-20T14:34:54.457Z,3.30
2023-04-20T14:37:20.991Z,3.40
2023-04-20T14:39:47.458Z,4.20
2023-04-20T14:42:14.291Z,3.50
2023-04-20T14:44:40.874Z,5.70
2023-04-20T14:47:07.383Z,3.20
2023-04-20T14:49:33.934Z,3.70
2023-04-20T14:52:00.443Z,4.50
2023-04-20T14:54:26.932Z,4.80
2023-04-20T14:56:53.392Z,5.30
2023-04-20T14:59:19.887Z,5.60
2023-04-20T15:01:59.104Z,5.30
2023-04-20T15:04:29.473Z,5.70
2023-04-20T15:06:56.393Z,5.40
2023-04-20T15:09:22.826Z,6.40
2023-04-20T15:11:49.300Z,5.80
2023-04-20T15:14:15.983Z,3.10
2023-04-20T15:16:42.874Z,5.70
2023-04-20T15:19:09.295Z,5.00
2023-04-20T15:21:35.769Z,4.70
2023-04-20T15:24:02.426Z,4.70
2023-04-20T15:26:29.243Z,3.50
2023-04-20T15:28:56.667Z,4.90
2023-04-20T15:31:23.587Z,3.80
2023-04-20T15:33:50.231Z,3.50
2023-04-20T15:36:18.993Z,6.00
2023-04-20T15:38:45.939Z,5.30
2023-04-20T15:41:12.393Z,4.20
2023-04-20T15:43:39.454Z,5.70
2023-04-20T15:46:06.175Z,3.70
2023-04-20T15:48:32.690Z,4.00
2023-04-20T15:50:59.268Z,3.10
2023-04-20T15:53:25.736Z,4.90
2023-04-20T15:59:39.646Z,4.70
2023-04-20T16:02:06.743Z,3.90
2023-04-20T16:04:33.243Z,3.00
2023-04-20T16:06:59.926Z,12.90
2023-04-20T16:09:26.338Z,10.70
2023-04-20T16:11:52.834Z,7.00
2023-04-20T16:14:19.507Z,5.80
2023-04-20T16:16:46.381Z,4.60
2023-04-20T16:19:15.687Z,8.10
2023-04-20T16:21:42.262Z,6.80
2023-04-20T16:24:08.748Z,6.70
2023-04-20T16:26:35.262Z,6.10
2023-04-20T16:29:02.018Z,5.80
2023-04-20T16:31:29.613Z,5.50
2023-04-20T16:33:57.195Z,4.40
2023-04-20T16:36:24.464Z,5.90
2023-04-20T16:38:50.922Z,5.60
2023-04-20T16:41:17.611Z,6.40
2023-04-20T16:43:44.092Z,9.60
2023-04-20T16:46:14.423Z,7.10
2023-04-20T16:48:40.824Z,6.90
2023-04-20T16:51:07.455Z,6.30
2023-04-20T16:56:45.982Z,8.90
2023-04-20T16:59:12.386Z,8.80
2023-04-20T17:01:38.845Z,7.60
2023-04-20T17:04:05.586Z,8.60
2023-04-20T17:06:32.276Z,8.70
2023-04-20T17:09:05.359Z,7.90
2023-04-20T17:11:35.541Z,7.80
2023-04-20T17:14:03.231Z,7.30
2023-04-20T17:18:56.628Z,7.90
2023-04-20T17:21:23.198Z,8.30
2023-04-20T17:23:49.760Z,10.50
2023-04-20T17:26:16.180Z,9.10
2023-04-20T17:28:42.554Z,9.20
2023-04-20T17:31:09.009Z,9.10
2023-04-20T17:33:35.483Z,7.60
2023-04-20T17:36:01.947Z,8.80
2023-04-20T17:38:28.402Z,10.00
2023-04-20T17:40:54.958Z,8.70
2023-04-20T17:43:21.396Z,10.80
2023-04-20T17:45:50.966Z,12.30
2023-04-20T17:48:17.423Z,9.80
2023-04-20T17:50:48.701Z,10.50
2023-04-20T17:53:15.198Z,7.90
2023-04-20T17:55:41.618Z,7.90
2023-04-20T17:58:08.096Z,9.50
2023-04-20T18:00:34.747Z,11.70
2023-04-20T18:03:01.312Z,10.00
2023-04-20T18:05:27.937Z,8.70
2023-04-20T18:07:54.404Z,8.70
2023-04-20T18:10:20.875Z,9.50
2023-04-20T18:12:47.267Z,11.40
2023-04-20T18:15:13.810Z,8.70
2023-04-20T18:17:40.316Z,9.00
2023-04-20T18:20:08.547Z,8.90
2023-04-20T18:22:36.813Z,9.90
2023-04-20T18:25:04.525Z,10.70
2023-04-20T18:27:31.274Z,8.50
2023-04-20T18:30:00.725Z,10.20
2023-04-20T18:32:27.619Z,11.90
2023-04-20T18:34:54.116Z,10.40
2023-04-20T18:37:20.629Z,8.00
2023-04-20T18:39:47.230Z,10.90
2023-04-20T18:42:13.684Z,13.10
2023-04-20T18:44:40.674Z,9.20
2023-04-20T18:47:08.219Z,11.90
2023-04-20T18:52:04.825Z,9.10
2023-04-20T18:54:31.363Z,9.30
2023-04-20T18:56:58.259Z,9.40
2023-04-20T18:59:25.024Z,10.60
2023-04-20T19:01:52.442Z,8.40
2023-04-20T19:04:19.800Z,9.20
2023-04-20T19:06:46.454Z,9.10
2023-04-20T19:09:12.934Z,8.70
2023-04-20T19:11:39.497Z,10.20
2023-04-20T19:14:06.253Z,9.10
2023-04-20T19:16:33.798Z,10.50
2023-04-20T19:21:27.086Z,8.60
2023-04-20T19:23:53.596Z,10.30
2023-04-20T19:26:20.190Z,8.40
2023-04-20T19:28:46.687Z,10.10
2023-04-20T19:31:13.400Z,8.80
2023-04-20T19:33:40.678Z,7.70
2023-04-20T19:36:08.253Z,8.70
2023-04-20T19:38:37.444Z,9.90
2023-04-20T19:41:04.994Z,9.10
2023-04-20T19:43:36.175Z,9.80
2023-04-20T19:46:02.706Z,11.10
2023-04-20T19:48:29.399Z,9.50
2023-04-20T19:50:59.662Z,9.60
2023-04-20T19:53:26.995Z,9.40
2023-04-20T19:55:53.425Z,10.70
2023-04-20T19:58:19.922Z,11.70
2023-04-20T20:00:46.575Z,14.80
2023-04-20T20:03:15.614Z,18.70
2023-04-20T20:05:43.507Z,13.70
2023-04-20T20:10:36.396Z,12.30
2023-04-20T20:13:03.350Z,10.80
2023-04-20T20:15:29.866Z,13.60
2023-04-20T20:17:58.486Z,10.10
2023-04-20T20:20:30.616Z,10.60
2023-04-20T20:22:57.230Z,9.80
2023-04-20T20:25:25.099Z,9.80
2023-04-20T20:27:51.841Z,9.20
2023-04-20T20:30:18.634Z,10.50
2023-04-20T20:32:45.314Z,11.00
2023-04-20T20:35:13.076Z,10.10
2023-04-20T20:37:40.724Z,10.10
2023-04-20T20:42:39.993Z,12.90
2023-04-20T20:45:10.763Z,10.60
2023-04-20T20:47:37.186Z,10.10
2023-04-20T20:50:03.937Z,11.40
2023-04-20T20:52:30.326Z,9.80
2023-04-20T20:54:56.743Z,10.40
2023-04-20T20:57:23.115Z,10.50
2023-04-20T20:59:50.435Z,12.00
2023-04-20T21:02:18.396Z,11.40
2023-04-20T21:04:45.068Z,13.30
2023-04-20T21:07:11.486Z,10.70
2023-04-20T21:09:37.884Z,11.40
2023-04-20T21:12:04.802Z,11.50
2023-04-20T21:14:31.330Z,11.40
2023-04-20T21:16:57.914Z,9.00
2023-04-20T21:19:24.534Z,11.50
2023-04-20T21:21:51.079Z,10.40
2023-04-20T21:24:17.591Z,11.40
2023-04-20T21:26:44.033Z,11.10
2023-04-20T21:29:10.451Z,10.40
2023-04-20T21:31:36.980Z,12.70
2023-04-20T21:34:03.527Z,14.90
2023-04-20T21:36:29.988Z,12.90
2023-04-20T21:38:56.404Z,13.40
2023-04-20T21:41:22.917Z,12.40
2023-04-20T21:43:52.035Z,12.80
2023-04-20T21:46:18.684Z,16.90
2023-04-20T21:48:45.181Z,13.70
2023-04-20T21:51:15.930Z,12.90
2023-04-20T21:53:42.642Z,11.30
2023-04-20T21:56:09.135Z,12.70
2023-04-20T21:58:35.828Z,11.20
2023-04-20T22:01:02.412Z,12.50
2023-04-20T22:03:29.763Z,14.90
2023-04-20T22:05:56.517Z,16.60
2023-04-20T22:08:23.004Z,16.40
2023-04-20T22:10:49.974Z,17.40
2023-04-20T22:13:16.924Z,13.50
2023-04-20T22:15:44.161Z,14.30
2023-04-20T22:18:11.335Z,10.90
2023-04-20T22:20:38.060Z,14.80
2023-04-20T22:23:04.928Z,14.90
2023-04-20T22:25:31.447Z,16.40
2023-04-20T22:27:58.030Z,12.40
2023-04-20T22:30:24.501Z,13.30
2023-04-20T22:32:51.004Z,15.60
2023-04-20T22:35:17.502Z,15.50
2023-04-20T22:37:44.001Z,14.10
2023-04-20T22:40:12.375Z,13.90
2023-04-20T22:42:38.770Z,15.10
2023-04-20T22:45:05.982Z,14.30
2023-04-20T22:47:32.495Z,13.10
2023-04-20T22:49:59.017Z,12.10
2023-04-20T22:52:25.583Z,13.00
2023-04-20T22:54:51.994Z,12.80
2023-04-20T22:57:18.541Z,13.00
2023-04-20T22:59:45.581Z,12.10
2023-04-20T23:02:12.080Z,12.40
2023-04-20T23:04:39.343Z,11.90
2023-04-20T23:07:06.949Z,11.00
2023-04-20T23:09:33.959Z,13.60
2023-04-20T23:12:00.375Z,10.70
2023-04-20T23:14:28.098Z,13.70
2023-04-20T23:19:21.910Z,13.20
2023-04-20T23:21:48.524Z,12.60
2023-04-20T23:24:14.930Z,12.30
2023-04-20T23:26:41.347Z,10.60
2023-04-20T23:29:07.785Z,10.60
2023-04-20T23:31:34.285Z,12.40
2023-04-20T23:34:00.852Z,11.80
2023-04-20T23:36:27.349Z,11.00
2023-04-20T23:38:53.764Z,13.00
2023-04-20T23:41:20.612Z,12.90
2023-04-20T23:43:47.064Z,12.90
2023-04-20T23:46:15.155Z,12.50
2023-04-20T23:48:41.599Z,11.90
2023-04-20T23:51:08.078Z,12.50
2023-04-20T23:53:39.139Z,14.40
2023-04-20T23:56:06.468Z,9.80
2023-04-20T23:58:32.982Z,13.20
